sensor_id;sensor_type;location;lat;lon;timestamp;temperature;humidity
2657;DHT22;1338;48.176;11.792;2024-02-16T00:00:03;2.80;1.00
2657;DHT22;1338;48.176;11.792;2024-02-16T00:02:37;2.80;1.00
2657;DHT22;1338;48.176;11.792;2024-02-16T00:05:06;2.80;1.00
2657;DHT22;1338;48.176;11.792;2024-02-16T00:07:37;2.90;1.00
2657;DHT22;1338;48.176;11.792;2024-02-16T00:10:08;3.00;1.00
2657;DHT22;1338;48.176;11.792;2024-02-16T00:12:36;2.90;1.00
2657;DHT22;1338;48.176;11.792;2024-02-16T00:15:07;2.90;1.00
2657;DHT22;1338;48.176;11.792;2024-02-16T00:17:37;2.80;1.00
2657;DHT22;1338;48.176;11.792;2024-02-16T00:20:07;2.50;1.00
2657;DHT22;1338;48.176;11.792;2024-02-16T00:22:35;2.60;1.00
2657;DHT22;1338;48.176;11.792;2024-02-16T00:25:04;2.50;1.00
2657;DHT22;1338;48.176;11.792;2024-02-16T00:27:33;2.60;5.20
2657;DHT22;1338;48.176;11.792;2024-02-16T00:30:02;2.60;78.70
2657;DHT22;1338;48.176;11.792;2024-02-16T00:32:30;2.50;92.60
2657;DHT22;1338;48.176;11.792;2024-02-16T00:34:58;2.60;99.90
2657;DHT22;1338;48.176;11.792;2024-02-16T00:37:27;2.50;99.90
2657;DHT22;1338;48.176;11.792;2024-02-16T00:39:55;2.40;99.90
2657;DHT22;1338;48.176;11.792;2024-02-16T00:42:23;2.30;99.90
2657;DHT22;1338;48.176;11.792;2024-02-16T00:44:54;2.30;99.90
2657;DHT22;1338;48.176;11.792;2024-02-16T00:47:23;2.20;99.90
2657;DHT22;1338;48.176;11.792;2024-02-16T00:49:52;2.20;99.90
2657;DHT22;1338;48.176;11.792;2024-02-16T00:52:20;2.20;99.90
2657;DHT22;1338;48.176;11.792;2024-02-16T00:54:49;2.20;99.90
2657;DHT22;1338;48.176;11.792;2024-02-16T00:57:17;2.30;99.90
2657;DHT22;1338;48.176;11.792;2024-02-16T00:59:45;2.30;99.90
2657;DHT22;1338;48.176;11.792;2024-02-16T01:02:15;2.30;99.90
2657;DHT22;1338;48.176;11.792;2024-02-16T01:04:44;2.50;99.90
2657;DHT22;1338;48.176;11.792;2024-02-16T01:07:13;2.50;99.90
2657;DHT22;1338;48.176;11.792;2024-02-16T01:09:41;2.40;99.90
2657;DHT22;1338;48.176;11.792;2024-02-16T01:12:10;2.50;99.90
2657;DHT22;1338;48.176;11.792;2024-02-16T01:14:38;2.60;99.90
2657;DHT22;1338;48.176;11.792;2024-02-16T01:17:06;2.60;99.90
2657;DHT22;1338;48.176;11.792;2024-02-16T01:19:36;2.50;99.90
2657;DHT22;1338;48.176;11.792;2024-02-16T01:22:04;2.70;99.90
2657;DHT22;1338;48.176;11.792;2024-02-16T01:24:32;2.10;60.10
2657;DHT22;1338;48.176;11.792;2024-02-16T01:27:00;1.90;1.00
2657;DHT22;1338;48.176;11.792;2024-02-16T01:29:29;1.90;99.20
2657;DHT22;1338;48.176;11.792;2024-02-16T01:31:59;1.80;99.90
2657;DHT22;1338;48.176;11.792;2024-02-16T01:34:27;1.70;99.90
2657;DHT22;1338;48.176;11.792;2024-02-16T01:36:58;1.80;99.90
2657;DHT22;1338;48.176;11.792;2024-02-16T01:39:26;2.00;99.90
2657;DHT22;1338;48.176;11.792;2024-02-16T01:41:54;2.40;99.90
2657;DHT22;1338;48.176;11.792;2024-02-16T01:44:23;2.50;99.90
2657;DHT22;1338;48.176;11.792;2024-02-16T01:46:51;2.60;99.90
2657;DHT22;1338;48.176;11.792;2024-02-16T01:49:19;2.80;99.90
2657;DHT22;1338;48.176;11.792;2024-02-16T01:51:48;2.80;99.90
2657;DHT22;1338;48.176;11.792;2024-02-16T01:54:18;2.80;99.90
2657;DHT22;1338;48.176;11.792;2024-02-16T01:56:47;2.60;99.90
2657;DHT22;1338;48.176;11.792;2024-02-16T01:59:16;2.50;99.90
2657;DHT22;1338;48.176;11.792;2024-02-16T02:01:44;2.40;99.90
2657;DHT22;1338;48.176;11.792;2024-02-16T02:04:12;2.30;99.90
2657;DHT22;1338;48.176;11.792;2024-02-16T02:06:41;2.30;99.90
2657;DHT22;1338;48.176;11.792;2024-02-16T02:09:09;2.20;99.90
2657;DHT22;1338;48.176;11.792;2024-02-16T02:11:38;2.40;99.90
2657;DHT22;1338;48.176;11.792;2024-02-16T02:14:07;2.30;99.90
2657;DHT22;1338;48.176;11.792;2024-02-16T02:16:35;2.40;99.90
2657;DHT22;1338;48.176;11.792;2024-02-16T02:19:17;2.40;99.90
2657;DHT22;1338;48.176;11.792;2024-02-16T02:21:45;2.40;99.90
2657;DHT22;1338;48.176;11.792;2024-02-16T02:24:14;2.30;99.90
2657;DHT22;1338;48.176;11.792;2024-02-16T02:26:43;2.40;99.90
2657;DHT22;1338;48.176;11.792;2024-02-16T02:29:12;2.40;99.90
2657;DHT22;1338;48.176;11.792;2024-02-16T02:31:40;2.30;99.90
2657;DHT22;1338;48.176;11.792;2024-02-16T02:34:09;2.30;99.90
2657;DHT22;1338;48.176;11.792;2024-02-16T02:36:37;2.20;99.90
2657;DHT22;1338;48.176;11.792;2024-02-16T02:39:06;2.30;99.90
2657;DHT22;1338;48.176;11.792;2024-02-16T02:41:35;2.50;99.90
2657;DHT22;1338;48.176;11.792;2024-02-16T02:44:05;2.60;99.90
2657;DHT22;1338;48.176;11.792;2024-02-16T02:46:33;2.70;99.90
2657;DHT22;1338;48.176;11.792;2024-02-16T02:49:01;2.70;99.90
2657;DHT22;1338;48.176;11.792;2024-02-16T02:51:30;2.90;99.90
2657;DHT22;1338;48.176;11.792;2024-02-16T02:53:59;3.00;94.70
2657;DHT22;1338;48.176;11.792;2024-02-16T02:56:27;2.50;1.00
2657;DHT22;1338;48.176;11.792;2024-02-16T02:58:56;2.40;1.00
2657;DHT22;1338;48.176;11.792;2024-02-16T03:01:25;2.60;1.00
2657;DHT22;1338;48.176;11.792;2024-02-16T03:03:53;2.60;1.00
2657;DHT22;1338;48.176;11.792;2024-02-16T03:06:21;2.50;1.00
2657;DHT22;1338;48.176;11.792;2024-02-16T03:08:50;2.50;1.00
2657;DHT22;1338;48.176;11.792;2024-02-16T03:11:18;2.40;1.00
2657;DHT22;1338;48.176;11.792;2024-02-16T03:13:46;2.40;1.00
2657;DHT22;1338;48.176;11.792;2024-02-16T03:16:16;2.60;1.00
2657;DHT22;1338;48.176;11.792;2024-02-16T03:18:44;2.60;1.00
2657;DHT22;1338;48.176;11.792;2024-02-16T03:21:13;2.60;1.00
2657;DHT22;1338;48.176;11.792;2024-02-16T03:23:43;2.60;1.00
2657;DHT22;1338;48.176;11.792;2024-02-16T03:26:15;2.60;1.00
2657;DHT22;1338;48.176;11.792;2024-02-16T03:28:44;2.70;1.00
2657;DHT22;1338;48.176;11.792;2024-02-16T03:31:17;2.60;1.00
2657;DHT22;1338;48.176;11.792;2024-02-16T03:33:46;2.70;1.00
2657;DHT22;1338;48.176;11.792;2024-02-16T03:36:14;2.70;1.00
2657;DHT22;1338;48.176;11.792;2024-02-16T03:38:43;2.40;1.00
2657;DHT22;1338;48.176;11.792;2024-02-16T03:41:13;2.20;1.00
2657;DHT22;1338;48.176;11.792;2024-02-16T03:43:42;2.20;1.00
2657;DHT22;1338;48.176;11.792;2024-02-16T03:46:10;2.30;1.00
2657;DHT22;1338;48.176;11.792;2024-02-16T03:48:40;2.30;1.00
2657;DHT22;1338;48.176;11.792;2024-02-16T03:51:08;2.50;1.00
2657;DHT22;1338;48.176;11.792;2024-02-16T03:53:36;2.50;1.00
2657;DHT22;1338;48.176;11.792;2024-02-16T03:56:05;2.60;1.00
2657;DHT22;1338;48.176;11.792;2024-02-16T03:58:35;2.60;1.00
2657;DHT22;1338;48.176;11.792;2024-02-16T04:01:04;2.80;1.00
2657;DHT22;1338;48.176;11.792;2024-02-16T04:03:34;2.80;1.00
2657;DHT22;1338;48.176;11.792;2024-02-16T04:06:04;2.80;1.00
2657;DHT22;1338;48.176;11.792;2024-02-16T04:08:32;2.80;1.00
2657;DHT22;1338;48.176;11.792;2024-02-16T04:11:00;2.70;1.00
2657;DHT22;1338;48.176;11.792;2024-02-16T04:13:29;2.80;1.00
2657;DHT22;1338;48.176;11.792;2024-02-16T04:15:59;3.00;1.00
2657;DHT22;1338;48.176;11.792;2024-02-16T04:18:27;3.00;1.00
2657;DHT22;1338;48.176;11.792;2024-02-16T04:20:56;3.10;1.00
2657;DHT22;1338;48.176;11.792;2024-02-16T04:23:25;3.20;1.00
2657;DHT22;1338;48.176;11.792;2024-02-16T04:25:54;3.30;1.00
2657;DHT22;1338;48.176;11.792;2024-02-16T04:28:25;3.30;1.00
2657;DHT22;1338;48.176;11.792;2024-02-16T04:30:53;3.30;1.00
2657;DHT22;1338;48.176;11.792;2024-02-16T04:33:21;3.40;1.00
2657;DHT22;1338;48.176;11.792;2024-02-16T04:35:49;3.30;99.90
2657;DHT22;1338;48.176;11.792;2024-02-16T04:38:18;3.40;99.90
2657;DHT22;1338;48.176;11.792;2024-02-16T04:40:48;3.30;99.90
2657;DHT22;1338;48.176;11.792;2024-02-16T04:43:16;3.30;99.90
2657;DHT22;1338;48.176;11.792;2024-02-16T04:45:44;3.40;99.90
2657;DHT22;1338;48.176;11.792;2024-02-16T04:48:11;3.40;99.90
2657;DHT22;1338;48.176;11.792;2024-02-16T04:50:40;3.40;99.90
2657;DHT22;1338;48.176;11.792;2024-02-16T04:53:08;3.30;99.90
2657;DHT22;1338;48.176;11.792;2024-02-16T04:55:36;3.40;99.90
2657;DHT22;1338;48.176;11.792;2024-02-16T04:58:05;3.40;99.90
2657;DHT22;1338;48.176;11.792;2024-02-16T05:00:37;3.40;35.80
2657;DHT22;1338;48.176;11.792;2024-02-16T05:03:05;3.40;8.90
2657;DHT22;1338;48.176;11.792;2024-02-16T05:05:33;3.30;22.30
2657;DHT22;1338;48.176;11.792;2024-02-16T05:08:02;3.30;59.50
2657;DHT22;1338;48.176;11.792;2024-02-16T05:10:30;3.30;91.60
2657;DHT22;1338;48.176;11.792;2024-02-16T05:12:58;3.40;99.90
2657;DHT22;1338;48.176;11.792;2024-02-16T05:15:30;3.60;58.70
2657;DHT22;1338;48.176;11.792;2024-02-16T05:17:58;3.70;1.00
2657;DHT22;1338;48.176;11.792;2024-02-16T05:20:27;3.70;1.00
2657;DHT22;1338;48.176;11.792;2024-02-16T05:22:55;3.70;1.00
2657;DHT22;1338;48.176;11.792;2024-02-16T05:25:23;3.70;1.00
2657;DHT22;1338;48.176;11.792;2024-02-16T05:27:51;3.70;1.00
2657;DHT22;1338;48.176;11.792;2024-02-16T05:30:19;3.70;1.00
2657;DHT22;1338;48.176;11.792;2024-02-16T05:32:49;3.80;1.00
2657;DHT22;1338;48.176;11.792;2024-02-16T05:35:20;3.80;1.00
2657;DHT22;1338;48.176;11.792;2024-02-16T05:37:48;3.80;1.00
2657;DHT22;1338;48.176;11.792;2024-02-16T05:40:18;3.80;1.00
2657;DHT22;1338;48.176;11.792;2024-02-16T05:42:50;3.80;1.00
2657;DHT22;1338;48.176;11.792;2024-02-16T05:45:19;3.70;1.00
2657;DHT22;1338;48.176;11.792;2024-02-16T05:47:50;3.60;1.00
2657;DHT22;1338;48.176;11.792;2024-02-16T05:50:21;3.60;1.00
2657;DHT22;1338;48.176;11.792;2024-02-16T05:52:50;3.60;1.00
2657;DHT22;1338;48.176;11.792;2024-02-16T05:55:18;3.70;1.00
2657;DHT22;1338;48.176;11.792;2024-02-16T05:57:47;3.70;1.00
2657;DHT22;1338;48.176;11.792;2024-02-16T06:00:15;3.70;1.00
2657;DHT22;1338;48.176;11.792;2024-02-16T06:02:43;3.70;1.00
2657;DHT22;1338;48.176;11.792;2024-02-16T06:05:13;3.60;1.00
2657;DHT22;1338;48.176;11.792;2024-02-16T06:35:14;4.00;1.00
2657;DHT22;1338;48.176;11.792;2024-02-16T06:37:42;4.40;99.90
2657;DHT22;1338;48.176;11.792;2024-02-16T06:40:11;4.50;99.90
2657;DHT22;1338;48.176;11.792;2024-02-16T06:42:39;4.70;99.90
2657;DHT22;1338;48.176;11.792;2024-02-16T06:45:08;4.70;99.90
2657;DHT22;1338;48.176;11.792;2024-02-16T06:47:36;4.70;99.90
2657;DHT22;1338;48.176;11.792;2024-02-16T06:50:05;4.70;81.90
2657;DHT22;1338;48.176;11.792;2024-02-16T06:52:35;4.80;1.00
2657;DHT22;1338;48.176;11.792;2024-02-16T06:55:05;4.80;1.00
2657;DHT22;1338;48.176;11.792;2024-02-16T06:57:33;4.80;1.00
2657;DHT22;1338;48.176;11.792;2024-02-16T07:00:01;4.70;53.90
2657;DHT22;1338;48.176;11.792;2024-02-16T07:02:31;4.80;99.90
2657;DHT22;1338;48.176;11.792;2024-02-16T07:04:59;4.90;99.90
2657;DHT22;1338;48.176;11.792;2024-02-16T07:07:27;4.90;99.90
2657;DHT22;1338;48.176;11.792;2024-02-16T07:09:57;5.00;99.90
2657;DHT22;1338;48.176;11.792;2024-02-16T07:12:25;5.10;38.80
2657;DHT22;1338;48.176;11.792;2024-02-16T07:14:53;5.10;28.60
2657;DHT22;1338;48.176;11.792;2024-02-16T07:17:21;5.10;33.90
2657;DHT22;1338;48.176;11.792;2024-02-16T07:19:50;5.10;12.70
2657;DHT22;1338;48.176;11.792;2024-02-16T07:22:18;5.20;1.00
2657;DHT22;1338;48.176;11.792;2024-02-16T07:24:46;5.20;1.00
2657;DHT22;1338;48.176;11.792;2024-02-16T07:27:16;5.30;1.00
2657;DHT22;1338;48.176;11.792;2024-02-16T07:29:45;5.30;1.00
2657;DHT22;1338;48.176;11.792;2024-02-16T07:32:15;5.30;1.00
2657;DHT22;1338;48.176;11.792;2024-02-16T07:34:45;5.30;1.00
2657;DHT22;1338;48.176;11.792;2024-02-16T07:37:14;5.30;1.00
2657;DHT22;1338;48.176;11.792;2024-02-16T07:39:43;5.40;1.00
2657;DHT22;1338;48.176;11.792;2024-02-16T07:42:12;5.40;1.00
2657;DHT22;1338;48.176;11.792;2024-02-16T07:44:42;5.40;1.00
2657;DHT22;1338;48.176;11.792;2024-02-16T07:47:10;5.50;1.00
2657;DHT22;1338;48.176;11.792;2024-02-16T07:49:39;5.50;1.00
2657;DHT22;1338;48.176;11.792;2024-02-16T07:52:07;5.50;1.00
2657;DHT22;1338;48.176;11.792;2024-02-16T07:54:37;5.60;1.00
2657;DHT22;1338;48.176;11.792;2024-02-16T07:57:06;5.60;1.00
2657;DHT22;1338;48.176;11.792;2024-02-16T07:59:34;5.60;1.00
2657;DHT22;1338;48.176;11.792;2024-02-16T08:02:04;5.80;1.00
2657;DHT22;1338;48.176;11.792;2024-02-16T08:04:34;5.90;1.00
2657;DHT22;1338;48.176;11.792;2024-02-16T08:07:02;6.10;1.00
2657;DHT22;1338;48.176;11.792;2024-02-16T08:09:31;6.30;1.00
2657;DHT22;1338;48.176;11.792;2024-02-16T08:12:03;6.50;99.90
2657;DHT22;1338;48.176;11.792;2024-02-16T08:14:33;6.80;99.90
2657;DHT22;1338;48.176;11.792;2024-02-16T08:17:01;6.90;99.90
2657;DHT22;1338;48.176;11.792;2024-02-16T08:19:43;6.90;99.90
2657;DHT22;1338;48.176;11.792;2024-02-16T08:22:11;7.00;99.90
2657;DHT22;1338;48.176;11.792;2024-02-16T08:24:40;7.20;99.90
2657;DHT22;1338;48.176;11.792;2024-02-16T08:27:08;7.30;99.90
2657;DHT22;1338;48.176;11.792;2024-02-16T08:29:38;7.30;99.90
2657;DHT22;1338;48.176;11.792;2024-02-16T08:32:06;7.40;99.90
2657;DHT22;1338;48.176;11.792;2024-02-16T08:34:35;7.70;99.90
2657;DHT22;1338;48.176;11.792;2024-02-16T08:37:06;7.70;99.90
2657;DHT22;1338;48.176;11.792;2024-02-16T08:39:37;7.70;99.90
2657;DHT22;1338;48.176;11.792;2024-02-16T08:42:06;7.90;99.90
2657;DHT22;1338;48.176;11.792;2024-02-16T08:44:35;8.00;99.90
2657;DHT22;1338;48.176;11.792;2024-02-16T08:47:04;8.10;99.90
2657;DHT22;1338;48.176;11.792;2024-02-16T08:49:34;8.00;99.90
2657;DHT22;1338;48.176;11.792;2024-02-16T08:52:03;8.30;99.90
2657;DHT22;1338;48.176;11.792;2024-02-16T08:54:34;9.30;1.00
2657;DHT22;1338;48.176;11.792;2024-02-16T08:57:04;9.00;1.00
2657;DHT22;1338;48.176;11.792;2024-02-16T08:59:33;9.50;1.00
2657;DHT22;1338;48.176;11.792;2024-02-16T09:02:02;9.10;1.00
2657;DHT22;1338;48.176;11.792;2024-02-16T09:04:30;8.60;1.00
2657;DHT22;1338;48.176;11.792;2024-02-16T09:06:59;8.50;1.00
2657;DHT22;1338;48.176;11.792;2024-02-16T09:09:28;8.70;1.00
2657;DHT22;1338;48.176;11.792;2024-02-16T09:11:58;8.90;1.00
2657;DHT22;1338;48.176;11.792;2024-02-16T09:14:27;9.10;1.00
2657;DHT22;1338;48.176;11.792;2024-02-16T09:16:55;9.40;1.00
2657;DHT22;1338;48.176;11.792;2024-02-16T09:19:23;10.20;1.00
2657;DHT22;1338;48.176;11.792;2024-02-16T09:21:52;10.00;1.00
2657;DHT22;1338;48.176;11.792;2024-02-16T09:24:24;10.10;1.00
2657;DHT22;1338;48.176;11.792;2024-02-16T09:26:58;9.70;1.00
2657;DHT22;1338;48.176;11.792;2024-02-16T09:29:30;9.60;1.00
2657;DHT22;1338;48.176;11.792;2024-02-16T09:31:59;10.20;1.00
2657;DHT22;1338;48.176;11.792;2024-02-16T09:34:29;10.10;1.00
2657;DHT22;1338;48.176;11.792;2024-02-16T09:36:58;11.60;1.00
2657;DHT22;1338;48.176;11.792;2024-02-16T09:39:27;11.40;1.00
2657;DHT22;1338;48.176;11.792;2024-02-16T09:41:57;12.10;1.00
2657;DHT22;1338;48.176;11.792;2024-02-16T09:44:26;12.60;1.00
2657;DHT22;1338;48.176;11.792;2024-02-16T09:46:56;12.20;1.00
2657;DHT22;1338;48.176;11.792;2024-02-16T09:49:25;12.80;1.00
2657;DHT22;1338;48.176;11.792;2024-02-16T09:52:06;13.10;1.00
2657;DHT22;1338;48.176;11.792;2024-02-16T09:54:38;13.10;1.00
2657;DHT22;1338;48.176;11.792;2024-02-16T09:57:09;13.20;1.00
2657;DHT22;1338;48.176;11.792;2024-02-16T09:59:37;13.40;1.00
2657;DHT22;1338;48.176;11.792;2024-02-16T10:02:05;13.50;1.00
2657;DHT22;1338;48.176;11.792;2024-02-16T10:04:35;13.70;1.00
2657;DHT22;1338;48.176;11.792;2024-02-16T10:07:03;13.70;1.00
2657;DHT22;1338;48.176;11.792;2024-02-16T10:09:39;13.90;1.00
2657;DHT22;1338;48.176;11.792;2024-02-16T10:12:18;13.60;1.00
2657;DHT22;1338;48.176;11.792;2024-02-16T10:14:54;13.70;99.90
2657;DHT22;1338;48.176;11.792;2024-02-16T10:17:23;13.70;99.90
2657;DHT22;1338;48.176;11.792;2024-02-16T10:19:56;13.90;99.90
2657;DHT22;1338;48.176;11.792;2024-02-16T10:22:24;13.60;99.90
2657;DHT22;1338;48.176;11.792;2024-02-16T10:24:53;14.00;99.90
2657;DHT22;1338;48.176;11.792;2024-02-16T10:27:23;14.10;99.90
2657;DHT22;1338;48.176;11.792;2024-02-16T10:29:53;14.20;99.90
2657;DHT22;1338;48.176;11.792;2024-02-16T10:32:22;14.00;99.90
2657;DHT22;1338;48.176;11.792;2024-02-16T10:34:51;14.30;99.90
2657;DHT22;1338;48.176;11.792;2024-02-16T10:37:21;14.40;99.90
2657;DHT22;1338;48.176;11.792;2024-02-16T10:39:51;14.60;99.90
2657;DHT22;1338;48.176;11.792;2024-02-16T10:42:26;14.70;99.90
2657;DHT22;1338;48.176;11.792;2024-02-16T10:44:55;14.60;99.90
2657;DHT22;1338;48.176;11.792;2024-02-16T10:47:24;14.60;99.90
2657;DHT22;1338;48.176;11.792;2024-02-16T10:49:52;15.20;99.90
2657;DHT22;1338;48.176;11.792;2024-02-16T10:52:22;15.40;99.90
2657;DHT22;1338;48.176;11.792;2024-02-16T10:54:52;15.30;99.90
2657;DHT22;1338;48.176;11.792;2024-02-16T10:57:20;15.30;99.90
2657;DHT22;1338;48.176;11.792;2024-02-16T10:59:53;15.70;99.90
2657;DHT22;1338;48.176;11.792;2024-02-16T11:02:22;15.70;99.90
2657;DHT22;1338;48.176;11.792;2024-02-16T11:04:52;15.70;99.90
2657;DHT22;1338;48.176;11.792;2024-02-16T11:07:20;15.90;99.90
2657;DHT22;1338;48.176;11.792;2024-02-16T11:09:50;15.80;99.90
2657;DHT22;1338;48.176;11.792;2024-02-16T11:12:18;15.80;99.90
2657;DHT22;1338;48.176;11.792;2024-02-16T11:14:47;15.80;99.90
2657;DHT22;1338;48.176;11.792;2024-02-16T11:17:23;15.80;99.90
2657;DHT22;1338;48.176;11.792;2024-02-16T11:19:55;15.90;99.90
2657;DHT22;1338;48.176;11.792;2024-02-16T11:22:27;15.80;99.90
2657;DHT22;1338;48.176;11.792;2024-02-16T11:24:58;16.00;99.90
2657;DHT22;1338;48.176;11.792;2024-02-16T11:27:31;16.20;99.90
2657;DHT22;1338;48.176;11.792;2024-02-16T11:30:01;16.40;99.90
2657;DHT22;1338;48.176;11.792;2024-02-16T11:32:33;16.20;99.90
2657;DHT22;1338;48.176;11.792;2024-02-16T11:35:05;16.40;99.90
2657;DHT22;1338;48.176;11.792;2024-02-16T11:37:35;16.50;99.90
2657;DHT22;1338;48.176;11.792;2024-02-16T11:40:05;16.40;99.90
2657;DHT22;1338;48.176;11.792;2024-02-16T11:42:35;16.30;99.90
2657;DHT22;1338;48.176;11.792;2024-02-16T11:45:04;16.50;99.90
2657;DHT22;1338;48.176;11.792;2024-02-16T11:47:34;16.70;99.90
2657;DHT22;1338;48.176;11.792;2024-02-16T11:50:04;16.70;99.90
2657;DHT22;1338;48.176;11.792;2024-02-16T11:52:33;16.80;99.90
2657;DHT22;1338;48.176;11.792;2024-02-16T11:55:02;16.40;99.90
2657;DHT22;1338;48.176;11.792;2024-02-16T11:57:32;16.50;99.90
2657;DHT22;1338;48.176;11.792;2024-02-16T12:00:02;16.60;99.90
2657;DHT22;1338;48.176;11.792;2024-02-16T12:02:37;17.10;99.90
2657;DHT22;1338;48.176;11.792;2024-02-16T12:05:06;17.10;99.90
2657;DHT22;1338;48.176;11.792;2024-02-16T12:07:37;17.20;99.90
2657;DHT22;1338;48.176;11.792;2024-02-16T12:10:08;17.00;99.90
2657;DHT22;1338;48.176;11.792;2024-02-16T12:12:37;17.10;99.90
2657;DHT22;1338;48.176;11.792;2024-02-16T12:15:07;17.30;99.90
2657;DHT22;1338;48.176;11.792;2024-02-16T12:17:37;17.00;99.90
2657;DHT22;1338;48.176;11.792;2024-02-16T12:20:11;17.00;99.90
2657;DHT22;1338;48.176;11.792;2024-02-16T12:22:41;17.40;99.90
2657;DHT22;1338;48.176;11.792;2024-02-16T12:25:10;17.50;99.90
2657;DHT22;1338;48.176;11.792;2024-02-16T12:27:39;17.60;99.90
2657;DHT22;1338;48.176;11.792;2024-02-16T12:30:08;17.60;99.90
2657;DHT22;1338;48.176;11.792;2024-02-16T12:32:38;17.70;99.90
2657;DHT22;1338;48.176;11.792;2024-02-16T12:35:08;17.80;99.90
2657;DHT22;1338;48.176;11.792;2024-02-16T12:37:37;17.60;99.90
2657;DHT22;1338;48.176;11.792;2024-02-16T12:40:07;17.90;99.90
2657;DHT22;1338;48.176;11.792;2024-02-16T12:42:36;18.10;99.90
2657;DHT22;1338;48.176;11.792;2024-02-16T12:45:06;18.20;99.90
2657;DHT22;1338;48.176;11.792;2024-02-16T12:47:34;17.90;99.90
2657;DHT22;1338;48.176;11.792;2024-02-16T12:50:04;18.30;99.90
2657;DHT22;1338;48.176;11.792;2024-02-16T12:52:33;18.10;99.90
2657;DHT22;1338;48.176;11.792;2024-02-16T12:55:17;18.40;99.90
2657;DHT22;1338;48.176;11.792;2024-02-16T12:57:45;18.40;99.90
2657;DHT22;1338;48.176;11.792;2024-02-16T13:00:14;18.30;99.90
2657;DHT22;1338;48.176;11.792;2024-02-16T13:02:42;18.20;99.90
2657;DHT22;1338;48.176;11.792;2024-02-16T13:05:12;17.80;99.90
2657;DHT22;1338;48.176;11.792;2024-02-16T13:07:41;17.60;99.90
2657;DHT22;1338;48.176;11.792;2024-02-16T13:10:10;18.10;99.90
2657;DHT22;1338;48.176;11.792;2024-02-16T13:12:38;18.60;99.90
2657;DHT22;1338;48.176;11.792;2024-02-16T13:15:08;18.00;99.90
2657;DHT22;1338;48.176;11.792;2024-02-16T13:17:53;17.90;99.90
2657;DHT22;1338;48.176;11.792;2024-02-16T13:20:24;17.90;99.90
2657;DHT22;1338;48.176;11.792;2024-02-16T13:22:52;17.90;99.90
2657;DHT22;1338;48.176;11.792;2024-02-16T13:25:21;17.50;99.90
2657;DHT22;1338;48.176;11.792;2024-02-16T13:27:49;17.50;99.90
2657;DHT22;1338;48.176;11.792;2024-02-16T13:30:18;18.20;99.90
2657;DHT22;1338;48.176;11.792;2024-02-16T13:32:46;18.00;99.90
2657;DHT22;1338;48.176;11.792;2024-02-16T13:35:15;18.40;99.90
2657;DHT22;1338;48.176;11.792;2024-02-16T13:37:49;18.50;99.90
2657;DHT22;1338;48.176;11.792;2024-02-16T13:40:17;18.80;99.90
2657;DHT22;1338;48.176;11.792;2024-02-16T13:42:46;18.10;99.90
2657;DHT22;1338;48.176;11.792;2024-02-16T13:45:16;17.80;99.90
2657;DHT22;1338;48.176;11.792;2024-02-16T13:47:45;17.60;99.90
2657;DHT22;1338;48.176;11.792;2024-02-16T13:50:13;17.40;99.90
2657;DHT22;1338;48.176;11.792;2024-02-16T13:52:42;17.50;99.90
2657;DHT22;1338;48.176;11.792;2024-02-16T13:55:12;17.30;99.90
2657;DHT22;1338;48.176;11.792;2024-02-16T13:57:41;17.70;99.90
2657;DHT22;1338;48.176;11.792;2024-02-16T14:00:10;17.80;99.90
2657;DHT22;1338;48.176;11.792;2024-02-16T14:02:39;17.70;99.90
2657;DHT22;1338;48.176;11.792;2024-02-16T14:05:07;17.90;99.90
2657;DHT22;1338;48.176;11.792;2024-02-16T14:07:36;17.20;99.90
2657;DHT22;1338;48.176;11.792;2024-02-16T14:10:18;16.80;99.90
2657;DHT22;1338;48.176;11.792;2024-02-16T14:12:47;16.60;99.90
2657;DHT22;1338;48.176;11.792;2024-02-16T14:15:16;16.40;99.90
2657;DHT22;1338;48.176;11.792;2024-02-16T14:17:46;16.40;99.90
2657;DHT22;1338;48.176;11.792;2024-02-16T14:20:14;16.40;99.90
2657;DHT22;1338;48.176;11.792;2024-02-16T14:22:42;16.30;99.90
2657;DHT22;1338;48.176;11.792;2024-02-16T14:25:11;16.20;99.90
2657;DHT22;1338;48.176;11.792;2024-02-16T14:27:42;16.10;99.90
2657;DHT22;1338;48.176;11.792;2024-02-16T14:30:12;16.10;99.90
2657;DHT22;1338;48.176;11.792;2024-02-16T14:32:40;16.10;99.90
2657;DHT22;1338;48.176;11.792;2024-02-16T14:35:09;16.00;99.90
2657;DHT22;1338;48.176;11.792;2024-02-16T14:37:38;16.00;99.90
2657;DHT22;1338;48.176;11.792;2024-02-16T14:40:07;16.00;99.90
2657;DHT22;1338;48.176;11.792;2024-02-16T14:42:38;15.90;99.90
2657;DHT22;1338;48.176;11.792;2024-02-16T14:45:09;15.90;99.90
2657;DHT22;1338;48.176;11.792;2024-02-16T14:47:47;16.00;99.90
2657;DHT22;1338;48.176;11.792;2024-02-16T14:50:16;15.90;99.90
2657;DHT22;1338;48.176;11.792;2024-02-16T14:52:45;16.00;99.90
2657;DHT22;1338;48.176;11.792;2024-02-16T14:55:14;15.90;99.90
2657;DHT22;1338;48.176;11.792;2024-02-16T14:57:43;15.90;99.90
2657;DHT22;1338;48.176;11.792;2024-02-16T15:00:14;16.00;99.90
2657;DHT22;1338;48.176;11.792;2024-02-16T15:02:42;16.10;99.90
2657;DHT22;1338;48.176;11.792;2024-02-16T15:05:11;16.60;99.90
2657;DHT22;1338;48.176;11.792;2024-02-16T15:07:40;16.90;99.90
2657;DHT22;1338;48.176;11.792;2024-02-16T15:10:09;17.00;99.90
2657;DHT22;1338;48.176;11.792;2024-02-16T15:12:38;17.20;99.90
2657;DHT22;1338;48.176;11.792;2024-02-16T15:15:10;17.20;99.90
2657;DHT22;1338;48.176;11.792;2024-02-16T15:17:42;17.10;99.90
2657;DHT22;1338;48.176;11.792;2024-02-16T15:20:12;16.90;99.90
2657;DHT22;1338;48.176;11.792;2024-02-16T15:22:40;16.80;99.90
2657;DHT22;1338;48.176;11.792;2024-02-16T15:25:19;16.60;99.90
2657;DHT22;1338;48.176;11.792;2024-02-16T15:27:47;16.60;99.90
2657;DHT22;1338;48.176;11.792;2024-02-16T15:30:16;16.50;99.90
2657;DHT22;1338;48.176;11.792;2024-02-16T15:32:46;16.40;99.90
2657;DHT22;1338;48.176;11.792;2024-02-16T15:35:18;16.50;99.90
2657;DHT22;1338;48.176;11.792;2024-02-16T15:37:47;16.40;99.90
2657;DHT22;1338;48.176;11.792;2024-02-16T15:40:16;16.20;99.90
2657;DHT22;1338;48.176;11.792;2024-02-16T15:42:58;16.00;99.90
2657;DHT22;1338;48.176;11.792;2024-02-16T15:45:27;15.80;99.90
2657;DHT22;1338;48.176;11.792;2024-02-16T15:47:57;15.50;99.90
2657;DHT22;1338;48.176;11.792;2024-02-16T15:50:26;15.40;99.90
2657;DHT22;1338;48.176;11.792;2024-02-16T15:52:57;15.30;99.90
2657;DHT22;1338;48.176;11.792;2024-02-16T15:55:25;15.20;99.90
2657;DHT22;1338;48.176;11.792;2024-02-16T15:57:53;15.10;99.90
2657;DHT22;1338;48.176;11.792;2024-02-16T16:00:22;15.00;99.90
2657;DHT22;1338;48.176;11.792;2024-02-16T16:02:52;14.90;99.90
2657;DHT22;1338;48.176;11.792;2024-02-16T16:05:22;14.90;99.90
2657;DHT22;1338;48.176;11.792;2024-02-16T16:07:50;14.80;99.90
2657;DHT22;1338;48.176;11.792;2024-02-16T16:10:19;14.80;99.90
2657;DHT22;1338;48.176;11.792;2024-02-16T16:12:48;14.50;99.90
2657;DHT22;1338;48.176;11.792;2024-02-16T16:15:16;14.50;99.90
2657;DHT22;1338;48.176;11.792;2024-02-16T16:17:45;14.40;99.90
2657;DHT22;1338;48.176;11.792;2024-02-16T16:20:14;14.30;99.90
2657;DHT22;1338;48.176;11.792;2024-02-16T16:22:45;14.10;99.90
2657;DHT22;1338;48.176;11.792;2024-02-16T16:25:14;13.80;99.90
2657;DHT22;1338;48.176;11.792;2024-02-16T16:27:45;13.50;99.90
2657;DHT22;1338;48.176;11.792;2024-02-16T16:30:14;13.50;99.90
2657;DHT22;1338;48.176;11.792;2024-02-16T16:32:42;13.60;99.90
2657;DHT22;1338;48.176;11.792;2024-02-16T16:35:11;13.60;99.90
2657;DHT22;1338;48.176;11.792;2024-02-16T16:37:39;13.20;99.90
2657;DHT22;1338;48.176;11.792;2024-02-16T16:40:10;13.20;99.90